Time;durP1;ratioP1;P1;durP2;ratioP2;P2;SDS_P1;SDS_P2;PMS_P1;PMS_P2;Temp;Humidity;BMP_temperature;BMP_pressure;BME280_temperature;BME280_humidity;BME280_pressure;Samples;Min_cycle;Max_cycle;Signal;HPM_P1;HPM_P2
2023/02/18 00:00:19;;;;;;;7.65;1.27;;;;;;;11.91;72.75;102299.66;5076203;28;20045;-84
2023/02/18 00:02:46;;;;;;;0.57;0.57;;;;;;;11.88;72.81;102304.94;5064139;28;20115;-85
2023/02/18 00:05:12;;;;;;;0.45;0.43;;;;;;;11.83;73.06;102304.06;5067545;28;20032;-86
2023/02/18 00:07:40;;;;;;;2.45;2.35;;;;;;;11.74;73.73;102299.66;5065925;28;20062;-84
2023/02/18 00:10:11;;;;;;;0.20;0.20;;;;;;;11.74;73.08;102288.16;5060709;28;20218;-85
2023/02/18 00:12:37;;;;;;;0.75;0.75;;;;;;;11.72;73.31;102284.63;5060346;28;20025;-84
2023/02/18 00:15:04;;;;;;;0.77;0.77;;;;;;;11.69;73.15;102284.63;5067794;28;20050;-84
2023/02/18 00:17:30;;;;;;;1.30;1.20;;;;;;;11.67;73.65;102281.97;5067551;28;20522;-86
2023/02/18 00:19:56;;;;;;;1.45;1.45;;;;;;;11.68;73.06;102288.19;5068389;28;20092;-85
2023/02/18 00:22:23;;;;;;;1.17;1.17;;;;;;;11.64;73.51;102287.31;5065916;28;20430;-85
2023/02/18 00:24:49;;;;;;;0.57;0.57;;;;;;;11.55;73.56;102281.97;5065149;28;20036;-85
2023/02/18 00:27:16;;;;;;;0.50;0.50;;;;;;;11.46;74.40;102283.78;5058383;28;20096;-85
2023/02/18 00:29:42;;;;;;;0.35;0.35;;;;;;;11.43;74.23;102273.16;5065504;28;20082;-84
2023/02/18 00:32:08;;;;;;;0.40;0.40;;;;;;;11.47;74.22;102274.03;5068139;28;20036;-84
2023/02/18 00:34:35;;;;;;;0.95;0.95;;;;;;;11.47;74.61;102269.59;5060493;28;20036;-85
2023/02/18 00:37:01;;;;;;;4.25;1.17;;;;;;;11.45;74.74;102262.53;5061633;28;20025;-83
2023/02/18 00:39:27;;;;;;;0.32;0.32;;;;;;;11.47;74.54;102263.41;5062788;28;20049;-84
2023/02/18 00:41:53;;;;;;;0.65;0.65;;;;;;;11.41;74.59;102253.69;5063199;28;20066;-84
2023/02/18 00:44:19;;;;;;;2.72;1.15;;;;;;;11.29;74.81;102254.59;5060550;28;20024;-85
2023/02/18 00:46:47;;;;;;;0.10;0.10;;;;;;;11.39;74.53;102244.84;5065321;28;20043;-84
2023/02/18 00:49:13;;;;;;;0.20;0.20;;;;;;;11.36;75.07;102249.28;5075666;28;20167;-84
2023/02/18 00:51:39;;;;;;;0.30;0.30;;;;;;;11.41;74.71;102253.69;5084720;28;20083;-82
2023/02/18 00:54:05;;;;;;;0.10;0.10;;;;;;;11.38;74.98;102252.81;5079545;28;20020;-83
2023/02/18 00:56:32;;;;;;;0.73;0.73;;;;;;;11.39;74.27;102252.81;5066500;28;20059;-85
2023/02/18 00:58:58;;;;;;;2.38;1.60;;;;;;;11.37;74.69;102251.06;5066645;28;20048;-85
2023/02/18 01:01:24;;;;;;;4.72;1.27;;;;;;;11.42;75.09;102250.13;5071659;28;20025;-85
2023/02/18 01:03:50;;;;;;;0.70;0.70;;;;;;;11.47;75.34;102242.19;5073797;28;20504;-85
2023/02/18 01:06:16;;;;;;;2.25;2.05;;;;;;;11.48;75.15;102251.91;5068867;28;20071;-85
2023/02/18 01:08:43;;;;;;;0.50;0.50;;;;;;;11.48;74.66;102247.47;5065011;28;20020;-85
2023/02/18 01:11:11;;;;;;;0.30;0.30;;;;;;;11.51;75.00;102245.72;5083049;28;20023;-83
2023/02/18 01:13:37;;;;;;;0.50;0.50;;;;;;;11.51;74.79;102249.25;5087225;28;20044;-83
2023/02/18 01:16:04;;;;;;;0.10;0.10;;;;;;;11.52;75.00;102240.41;5088118;28;20096;-83
2023/02/18 01:18:30;;;;;;;1.40;1.40;;;;;;;11.53;75.15;102238.66;5088674;28;20041;-84
2023/02/18 01:20:58;;;;;;;1.05;1.05;;;;;;;11.49;75.10;102230.69;5088665;28;20104;-84
2023/02/18 01:23:24;;;;;;;4.78;1.65;;;;;;;11.56;74.97;102235.97;5069376;28;20032;-85
2023/02/18 01:25:51;;;;;;;0.40;0.40;;;;;;;11.53;74.91;102226.25;5069312;28;20166;-85
2023/02/18 01:28:17;;;;;;;0.50;0.50;;;;;;;11.59;75.24;102225.34;5063996;28;20025;-85
2023/02/18 01:30:44;;;;;;;1.65;1.63;;;;;;;11.49;75.68;102225.38;5068419;28;20040;-85
2023/02/18 01:33:10;;;;;;;0.35;0.35;;;;;;;11.59;75.02;102217.38;5068503;28;20028;-86
2023/02/18 01:35:39;;;;;;;1.48;1.38;;;;;;;11.62;75.03;102220.03;5062589;28;20025;-84
2023/02/18 01:38:05;;;;;;;0.65;0.65;;;;;;;11.63;74.76;102212.06;5063484;28;20024;-85
2023/02/18 01:40:32;;;;;;;1.08;0.95;;;;;;;11.64;75.01;102219.16;5071054;28;20029;-84
2023/02/18 01:42:58;;;;;;;0.10;0.10;;;;;;;11.64;74.92;102218.28;5061424;28;20444;-85
2023/02/18 01:45:51;;;;;;;1.10;0.85;;;;;;;11.70;75.42;102220.91;5069421;28;20063;-86
2023/02/18 01:48:26;;;;;;;;;;;;;;;11.68;75.23;102212.06;5071289;28;20039;-84
2023/02/18 01:50:59;;;;;;;0.50;0.50;;;;;;;11.65;75.73;102204.09;5072256;28;19927;-85
2023/02/18 01:53:32;;;;;;;1.38;0.90;;;;;;;11.64;75.72;102203.22;5069200;28;20029;-85
2023/02/18 01:56:02;;;;;;;4.30;3.25;;;;;;;11.63;75.76;102195.25;5062978;28;20017;-84
2023/02/18 01:58:28;;;;;;;1.90;1.85;;;;;;;11.66;75.47;102192.59;5069505;28;20502;-84
2023/02/18 02:00:55;;;;;;;0.90;0.90;;;;;;;11.64;76.11;102197.91;5064338;28;20412;-85
2023/02/18 02:03:21;;;;;;;2.67;2.47;;;;;;;11.67;75.25;102191.69;5062774;28;20060;-84
2023/02/18 02:05:47;;;;;;;2.45;2.33;;;;;;;11.62;75.99;102181.09;5068457;28;20090;-85
2023/02/18 02:08:13;;;;;;;1.85;1.75;;;;;;;11.63;76.35;102185.50;5065055;28;20085;-85
2023/02/18 02:11:06;;;;;;;0.55;0.55;;;;;;;11.73;75.77;102180.19;5063035;28;20036;-84
2023/02/18 02:13:50;;;;;;;1.00;1.00;;;;;;;11.76;76.30;102177.50;5065120;28;20403;-85
2023/02/18 02:19:21;;;;;;;0.50;0.50;;;;;;;11.77;76.11;102148.28;5095446;27;1391129;-85
2023/02/18 02:22:14;;;;;;;1.85;1.75;;;;;;;11.80;75.93;102139.44;5128699;28;20050;-84
2023/02/18 02:25:05;;;;;;;2.17;1.30;;;;;;;11.74;76.04;102135.03;5122718;28;20011;-83
2023/02/18 02:28:09;;;;;;;0.38;0.38;;;;;;;11.78;76.58;102133.25;5120448;28;20024;-85
2023/02/18 02:31:01;;;;;;;1.38;1.27;;;;;;;11.81;76.60;102125.25;5117710;28;20024;-84
2023/02/18 02:33:58;;;;;;;0.52;0.52;;;;;;;11.82;75.92;102119.06;5119229;28;20042;-85
2023/02/18 02:36:39;;;;;;;2.38;2.28;;;;;;;11.78;76.47;102104.94;5117648;28;20241;-85
2023/02/18 02:39:24;;;;;;;0.30;0.30;;;;;;;11.76;76.67;102101.41;5108249;28;20043;-85
2023/02/18 02:45:15;;;;;;;1.85;1.40;;;;;;;11.74;77.40;102089.00;5071789;27;20407;-86
2023/02/18 02:47:55;;;;;;;1.48;1.38;;;;;;;11.68;77.01;102081.09;5036739;28;20048;-85
2023/02/18 02:50:45;;;;;;;2.28;1.20;;;;;;;11.80;76.47;102083.66;5049928;28;20119;-86
2023/02/18 02:53:23;;;;;;;0.20;0.20;;;;;;;11.76;76.54;102066.91;5046024;28;20021;-85
2023/02/18 02:55:49;;;;;;;1.08;0.98;;;;;;;11.60;76.75;102068.75;5045230;28;20026;-86
2023/02/18 02:58:18;;;;;;;2.13;1.80;;;;;;;11.63;76.80;102067.84;5040439;28;20021;-86
2023/02/18 03:07:26;;;;;;;0.10;0.10;;;;;;;11.61;76.90;102065.19;5062422;28;20390;-86
2023/02/18 03:22:52;;;;;;;0.10;0.10;;;;;;;11.52;77.07;102043.13;5114032;27;21067;-85
2023/02/18 03:25:20;;;;;;;0.93;0.85;;;;;;;11.52;77.59;102043.13;5081034;28;20036;-86
2023/02/18 03:27:54;;;;;;;0.03;0.03;;;;;;;11.51;77.18;102041.34;5079664;28;20067;-86
2023/02/18 03:30:45;;;;;;;0.10;0.10;;;;;;;11.56;76.90;102028.94;5082258;28;20686;-85
2023/02/18 03:33:16;;;;;;;0.10;0.10;;;;;;;11.49;77.43;102017.47;5094053;28;20566;-85
2023/02/18 03:35:44;;;;;;;0.10;0.10;;;;;;;11.54;77.47;102007.72;5095528;28;20553;-85
2023/02/18 03:51:10;;;;;;;0.20;0.20;;;;;;;11.60;77.42;101997.06;5113921;27;1169638;-84
2023/02/18 03:53:36;;;;;;;1.23;0.57;;;;;;;11.59;77.54;101997.06;5124747;27;20313;-83
2023/02/18 03:56:02;;;;;;;0.52;0.52;;;;;;;11.56;77.76;101986.47;5122942;28;20560;-85
2023/02/18 03:58:28;;;;;;;0.43;0.43;;;;;;;11.53;77.98;101986.50;5119711;28;20477;-84
2023/02/18 04:00:54;;;;;;;0.50;0.50;;;;;;;11.58;77.95;101985.56;5122446;28;20114;-85
2023/02/18 04:03:20;;;;;;;0.10;0.10;;;;;;;11.48;78.39;101979.44;5130867;27;20030;-83
2023/02/18 04:05:47;;;;;;;0.30;0.30;;;;;;;11.59;77.89;101986.44;5115399;28;20070;-84
2023/02/18 04:08:13;;;;;;;1.33;1.27;;;;;;;11.56;77.82;101987.34;5122178;28;20019;-84
2023/02/18 04:10:39;;;;;;;0.28;0.28;;;;;;;11.56;78.19;101976.72;5124413;28;20059;-85
2023/02/18 04:13:05;;;;;;;0.28;0.28;;;;;;;11.57;77.76;101975.84;5125628;27;20035;-85
2023/02/18 04:15:33;;;;;;;0.10;0.10;;;;;;;11.56;77.70;101986.47;5119964;28;20028;-84
2023/02/18 04:17:59;;;;;;;0.10;0.10;;;;;;;11.54;78.85;101975.88;5119468;28;20371;-85
2023/02/18 04:20:25;;;;;;;0.50;0.50;;;;;;;11.57;78.04;101973.19;5129599;28;20028;-85
2023/02/18 04:22:51;;;;;;;0.95;0.90;;;;;;;11.59;78.13;101959.88;5130396;27;20061;-83
2023/02/18 04:25:17;;;;;;;0.20;0.20;;;;;;;11.59;78.34;101971.41;5145711;28;20016;-83
2023/02/18 04:27:44;;;;;;;0.10;0.10;;;;;;;11.61;77.91;101972.28;5151345;27;20129;-85
2023/02/18 04:30:10;;;;;;;0.98;0.95;;;;;;;11.58;78.48;101964.34;5132000;28;20047;-84
2023/02/18 04:32:36;;;;;;;0.47;0.47;;;;;;;11.54;78.81;101962.59;5122082;28;20032;-83
2023/02/18 04:35:03;;;;;;;1.23;1.17;;;;;;;11.58;78.52;101969.63;5121268;27;20027;-83
2023/02/18 04:37:29;;;;;;;0.47;0.47;;;;;;;11.64;78.06;101966.06;5123965;28;20023;-83
2023/02/18 04:39:55;;;;;;;3.72;1.10;;;;;;;11.64;78.35;101951.03;5124951;28;20087;-85
2023/02/18 04:42:22;;;;;;;0.10;0.10;;;;;;;11.66;78.08;101961.63;5129149;28;20083;-85
2023/02/18 04:44:48;;;;;;;0.22;0.22;;;;;;;11.70;78.26;101952.75;5124690;27;20024;-83
2023/02/18 04:47:14;;;;;;;0.80;0.80;;;;;;;11.69;78.33;101947.44;5118266;28;20103;-84
2023/02/18 04:49:40;;;;;;;0.10;0.10;;;;;;;11.75;78.46;101940.34;5122800;28;20392;-84
2023/02/18 04:52:06;;;;;;;1.10;1.10;;;;;;;11.61;78.58;101936.88;5113531;28;20087;-84
2023/02/18 04:54:32;;;;;;;0.45;0.45;;;;;;;11.64;79.32;101920.94;5109389;28;20023;-83
2023/02/18 04:56:58;;;;;;;0.40;0.40;;;;;;;11.60;79.18;101929.81;5107419;28;20313;-84
2023/02/18 04:59:25;;;;;;;0.10;0.10;;;;;;;11.64;78.85;101931.56;5103765;28;20028;-84
2023/02/18 05:01:51;;;;;;;0.17;0.17;;;;;;;11.64;78.89;101916.50;5095156;28;20036;-84
2023/02/18 05:04:17;;;;;;;0.20;0.20;;;;;;;11.73;79.19;101930.63;5098966;28;20043;-84
2023/02/18 05:06:43;;;;;;;5.28;2.05;;;;;;;11.77;78.57;101922.59;5108930;28;20020;-84
2023/02/18 05:09:10;;;;;;;0.45;0.45;;;;;;;11.79;78.63;101933.22;5108910;28;20365;-84
2023/02/18 05:11:36;;;;;;;1.27;1.27;;;;;;;11.87;78.40;101930.50;5101696;28;20019;-84
2023/02/18 05:14:02;;;;;;;0.77;0.77;;;;;;;11.83;78.72;101924.34;5094142;28;20055;-84
2023/02/18 05:16:28;;;;;;;1.75;1.65;;;;;;;11.86;78.80;101926.94;5097785;28;20031;-84
2023/02/18 05:18:54;;;;;;;0.10;0.10;;;;;;;11.81;78.58;101928.78;5096733;28;20029;-85
2023/02/18 05:21:20;;;;;;;1.42;0.47;;;;;;;11.88;78.50;101921.66;5107665;28;20044;-85
2023/02/18 05:23:46;;;;;;;0.20;0.20;;;;;;;11.83;78.83;101924.34;5105128;28;20027;-84
2023/02/18 05:26:13;;;;;;;0.10;0.10;;;;;;;11.84;77.98;101926.09;5109485;28;20110;-86
2023/02/18 05:28:39;;;;;;;0.15;0.15;;;;;;;11.87;78.27;101911.91;5100678;28;20044;-84
2023/02/18 05:31:08;;;;;;;0.10;0.10;;;;;;;11.80;78.65;101916.38;5097065;28;20135;-84
2023/02/18 05:33:34;;;;;;;0.40;0.40;;;;;;;11.74;78.46;101903.16;5112442;28;20031;-84
2023/02/18 05:36:00;;;;;;;0.25;0.25;;;;;;;11.82;78.62;101896.00;5106499;28;20034;-85
2023/02/18 05:38:26;;;;;;;0.50;0.50;;;;;;;11.79;78.47;101912.00;5102891;28;20103;-85
2023/02/18 05:40:52;;;;;;;0.52;0.40;;;;;;;11.83;78.70;101905.75;5100786;28;20047;-84
2023/02/18 05:43:18;;;;;;;3.22;2.17;;;;;;;11.89;77.98;101895.06;5099743;28;20471;-84
2023/02/18 05:45:44;;;;;;;0.77;0.77;;;;;;;11.85;78.37;101903.97;5101087;28;20566;-84
2023/02/18 05:48:11;;;;;;;0.10;0.10;;;;;;;11.91;78.47;101898.63;5096214;28;20047;-85
2023/02/18 05:50:38;;;;;;;4.47;0.88;;;;;;;11.94;77.98;101898.56;5104591;28;20036;-85
2023/02/18 05:53:04;;;;;;;2.58;2.38;;;;;;;11.87;77.90;101899.50;5097931;28;20028;-84
2023/02/18 05:55:30;;;;;;;0.25;0.25;;;;;;;11.95;78.34;101892.38;5097426;28;20020;-85
2023/02/18 05:57:56;;;;;;;0.73;0.73;;;;;;;11.96;78.14;101899.47;5106209;28;20020;-86
2023/02/18 06:00:22;;;;;;;0.20;0.20;;;;;;;11.88;78.16;101898.63;5120085;28;20066;-83
2023/02/18 06:02:48;;;;;;;0.20;0.20;;;;;;;11.85;78.04;101888.03;5116159;28;20029;-84
2023/02/18 06:05:14;;;;;;;0.50;0.50;;;;;;;11.94;77.57;101892.38;5126442;28;20040;-84
2023/02/18 06:07:40;;;;;;;1.58;1.48;;;;;;;11.87;77.59;101896.84;5127975;28;20047;-85
2023/02/18 06:10:07;;;;;;;0.45;0.45;;;;;;;11.76;78.00;101883.69;5090544;28;20032;-85
2023/02/18 06:12:33;;;;;;;1.98;1.85;;;;;;;11.85;77.93;101874.75;5092521;28;20535;-86
2023/02/18 06:14:59;;;;;;;0.40;0.40;;;;;;;11.83;78.11;101881.84;5095661;28;20400;-85
2023/02/18 06:17:25;;;;;;;0.50;0.50;;;;;;;11.80;77.58;101895.13;5104470;28;20030;-85
2023/02/18 06:19:51;;;;;;;0.80;0.80;;;;;;;11.80;77.68;101879.22;5102460;28;20032;-85
2023/02/18 06:22:17;;;;;;;0.70;0.70;;;;;;;11.80;77.66;101877.44;5100306;28;20024;-84
2023/02/18 06:24:43;;;;;;;0.20;0.20;;;;;;;11.79;77.69;101877.47;5099634;28;20107;-86
2023/02/18 06:27:09;;;;;;;0.35;0.35;;;;;;;11.80;77.58;101876.53;5100994;28;20031;-85
2023/02/18 06:29:35;;;;;;;0.65;0.65;;;;;;;11.81;77.51;101871.25;5099022;28;20027;-85
2023/02/18 06:32:02;;;;;;;0.22;0.22;;;;;;;11.76;77.76;101869.50;5100122;28;20028;-85
2023/02/18 06:34:28;;;;;;;0.47;0.47;;;;;;;11.77;77.32;101866.84;5100659;28;20046;-85
2023/02/18 06:36:54;;;;;;;0.30;0.30;;;;;;;11.71;77.50;101868.69;5100643;28;20031;-85
2023/02/18 06:39:20;;;;;;;2.08;1.98;;;;;;;11.77;76.81;101874.81;5100902;28;20700;-85
2023/02/18 06:41:46;;;;;;;0.20;0.20;;;;;;;11.78;77.03;101881.00;5103879;28;20408;-85
2023/02/18 06:44:14;;;;;;;2.30;1.55;;;;;;;11.79;76.71;101864.19;5103203;28;20109;-87
2023/02/18 06:46:40;;;;;;;0.40;0.40;;;;;;;11.80;76.76;101868.59;5108888;28;20055;-86
2023/02/18 06:49:06;;;;;;;0.75;0.75;;;;;;;11.84;76.55;101875.66;5108549;28;20016;-84
2023/02/18 06:51:32;;;;;;;0.15;0.15;;;;;;;11.88;76.58;101882.69;5104337;28;20097;-85
2023/02/18 06:53:58;;;;;;;0.75;0.75;;;;;;;11.86;76.68;101880.94;5106913;28;20019;-87
2023/02/18 06:56:24;;;;;;;0.10;0.10;;;;;;;11.91;76.12;101872.06;5093466;28;20047;-86
2023/02/18 06:58:50;;;;;;;0.20;0.20;;;;;;;11.82;75.94;101877.44;5095665;28;20042;-86
2023/02/18 07:01:16;;;;;;;0.10;0.10;;;;;;;11.81;76.33;101875.66;5097603;28;20027;-85
2023/02/18 07:03:42;;;;;;;0.30;0.30;;;;;;;11.89;75.70;101870.31;5103186;28;20028;-86
2023/02/18 07:06:09;;;;;;;0.20;0.20;;;;;;;11.89;75.67;101881.78;5109436;28;20049;-85
2023/02/18 07:08:36;;;;;;;0.10;0.10;;;;;;;11.72;75.28;101871.31;5101923;28;20031;-85
2023/02/18 07:11:02;;;;;;;0.10;0.10;;;;;;;11.87;75.35;101869.44;5098273;28;20031;-86
2023/02/18 07:13:29;;;;;;;0.20;0.20;;;;;;;11.74;75.04;101885.47;5092450;28;20077;-86
2023/02/18 07:15:55;;;;;;;0.70;0.70;;;;;;;11.64;74.54;101886.44;5092124;28;20024;-86
2023/02/18 07:18:21;;;;;;;0.10;0.10;;;;;;;11.77;74.62;101868.63;5107538;28;20041;-86
2023/02/18 07:20:47;;;;;;;0.10;0.10;;;;;;;11.84;74.39;101874.75;5101387;28;20032;-86
2023/02/18 07:23:13;;;;;;;0.10;0.10;;;;;;;11.70;74.05;101874.88;5104732;28;20371;-85
2023/02/18 07:25:39;;;;;;;0.00;0.00;;;;;;;11.53;73.37;101875.91;5108163;28;20028;-85
2023/02/18 07:28:05;;;;;;;0.73;0.73;;;;;;;11.76;73.76;101861.56;5100471;28;20020;-85
2023/02/18 07:30:32;;;;;;;0.10;0.10;;;;;;;11.73;73.56;101877.53;5093073;28;20400;-85
2023/02/18 07:32:58;;;;;;;0.13;0.13;;;;;;;11.70;73.33;101861.59;5098942;28;20080;-85
2023/02/18 07:35:24;;;;;;;0.90;0.90;;;;;;;11.68;73.06;101858.09;5115660;28;20047;-85
2023/02/18 07:37:50;;;;;;;0.60;0.60;;;;;;;11.55;72.17;101852.88;5128935;28;20035;-85
2023/02/18 07:40:20;;;;;;;0.10;0.10;;;;;;;11.57;72.24;101877.63;5121764;28;20066;-88
2023/02/18 07:42:46;;;;;;;0.10;0.10;;;;;;;11.65;72.54;101866.94;5113888;28;20052;-86
2023/02/18 07:45:15;;;;;;;0.20;0.20;;;;;;;11.67;72.30;101862.50;5103145;28;20028;-86
2023/02/18 07:47:41;;;;;;;0.10;0.10;;;;;;;11.61;71.70;101868.78;5106470;28;20507;-86
2023/02/18 07:50:08;;;;;;;0.10;0.10;;;;;;;11.64;71.66;101863.41;5106624;28;20062;-86
2023/02/18 07:52:35;;;;;;;0.10;0.10;;;;;;;11.70;71.15;101865.16;5088699;28;20291;-87
2023/02/18 07:55:01;;;;;;;0.30;0.30;;;;;;;11.60;70.40;101872.31;5092852;28;20028;-86
2023/02/18 07:57:27;;;;;;;0.40;0.40;;;;;;;11.69;69.78;101876.66;5102168;28;20484;-86
2023/02/18 07:59:53;;;;;;;1.27;1.13;;;;;;;11.67;69.83;101881.09;5086793;28;20052;-85
2023/02/18 08:02:22;;;;;;;0.20;0.20;;;;;;;11.73;69.72;101888.13;5089589;28;20032;-85
2023/02/18 08:04:48;;;;;;;0.10;0.10;;;;;;;11.70;70.24;101882.84;5090751;28;20052;-86
2023/02/18 08:07:17;;;;;;;0.10;0.10;;;;;;;11.65;70.15;101902.34;5093633;28;20040;-86
2023/02/18 08:09:43;;;;;;;0.65;0.65;;;;;;;11.68;70.21;101893.47;5094766;28;20490;-86
2023/02/18 08:12:09;;;;;;;0.10;0.10;;;;;;;11.70;70.13;101877.53;5092234;28;20077;-86
2023/02/18 08:14:35;;;;;;;0.10;0.10;;;;;;;11.60;70.17;101882.94;5089456;28;20024;-84
2023/02/18 08:17:01;;;;;;;0.28;0.28;;;;;;;11.56;69.40;101886.47;5094416;28;20078;-86
2023/02/18 08:19:28;;;;;;;0.10;0.10;;;;;;;11.63;69.82;101877.56;5096501;28;20259;-85
2023/02/18 08:21:54;;;;;;;0.10;0.10;;;;;;;11.59;69.30;101883.81;5095778;28;20032;-85
2023/02/18 08:24:20;;;;;;;1.17;1.08;;;;;;;11.65;69.44;101873.16;5094590;28;20028;-83
2023/02/18 08:26:46;;;;;;;0.32;0.32;;;;;;;11.58;69.60;101874.09;5106982;28;20542;-85
2023/02/18 08:29:12;;;;;;;1.95;1.85;;;;;;;11.48;70.88;101890.97;5106351;28;20028;-85
2023/02/18 08:31:38;;;;;;;0.10;0.10;;;;;;;11.54;71.05;101892.69;5100767;28;20089;-85
2023/02/18 08:34:04;;;;;;;0.10;0.10;;;;;;;11.44;71.78;101897.16;5103016;28;20020;-85
2023/02/18 08:36:30;;;;;;;0.10;0.10;;;;;;;11.47;72.05;101907.78;5101898;28;20124;-84
2023/02/18 08:38:57;;;;;;;0.10;0.10;;;;;;;11.38;71.96;101899.91;5100540;28;20073;-82
2023/02/18 08:41:23;;;;;;;4.40;1.02;;;;;;;11.33;72.42;101874.25;5099932;28;20450;-83
2023/02/18 08:43:49;;;;;;;0.50;0.50;;;;;;;11.40;72.35;101879.53;5099938;28;20019;-84
2023/02/18 08:46:16;;;;;;;0.20;0.20;;;;;;;11.32;72.29;101888.41;5102287;28;20044;-84
2023/02/18 08:48:43;;;;;;;0.55;0.55;;;;;;;11.47;71.72;101881.25;5102750;28;20582;-83
2023/02/18 08:51:16;;;;;;;4.07;0.88;;;;;;;11.53;71.87;101890.94;5098072;28;20057;-84
2023/02/18 08:53:43;;;;;;;0.10;0.10;;;;;;;11.42;71.36;101889.22;5099301;28;20027;-84
2023/02/18 08:56:09;;;;;;;0.20;0.20;;;;;;;11.48;71.09;101898.94;5093735;28;20031;-83
2023/02/18 08:58:36;;;;;;;1.13;1.13;;;;;;;11.50;71.15;101899.78;5095919;28;20024;-83
2023/02/18 09:01:05;;;;;;;0.10;0.10;;;;;;;11.53;70.07;101921.00;5093500;28;20022;-84
2023/02/18 09:03:31;;;;;;;0.20;0.20;;;;;;;11.63;69.85;101890.84;5096034;28;20038;-82
2023/02/18 09:05:59;;;;;;;0.10;0.10;;;;;;;11.55;69.87;101897.09;5097491;28;20040;-83
2023/02/18 09:08:26;;;;;;;0.85;0.85;;;;;;;11.71;69.94;101897.88;5101269;28;20048;-81
2023/02/18 09:10:57;;;;;;;2.63;1.95;;;;;;;11.64;69.41;101916.50;5116989;28;20039;-84
2023/02/18 09:13:23;;;;;;;1.27;0.90;;;;;;;11.73;69.82;101915.56;5117411;28;20032;-84
2023/02/18 09:16:00;;;;;;;0.10;0.10;;;;;;;11.72;69.52;101923.53;5110310;28;20507;-84
2023/02/18 09:18:27;;;;;;;9.80;1.45;;;;;;;11.65;69.42;101936.84;5111334;28;20046;-83
2023/02/18 09:20:56;;;;;;;0.15;0.15;;;;;;;11.76;69.19;101919.97;5102784;28;20032;-83
2023/02/18 09:23:23;;;;;;;0.20;0.20;;;;;;;11.75;68.74;101934.13;5100126;28;20027;-88
2023/02/18 09:25:49;;;;;;;0.10;0.10;;;;;;;11.82;68.60;101925.22;5102011;28;20039;-84
2023/02/18 09:28:15;;;;;;;0.10;0.10;;;;;;;11.87;69.13;101923.41;5103600;28;20097;-83
2023/02/18 09:30:41;;;;;;;1.65;1.35;;;;;;;11.90;68.89;101918.09;5108309;28;20064;-84
2023/02/18 09:33:07;;;;;;;0.10;0.10;;;;;;;11.93;69.16;101928.66;5111056;28;20036;-83
2023/02/18 09:35:39;;;;;;;0.20;0.20;;;;;;;11.94;69.15;101930.44;5098547;28;20050;-84
2023/02/18 09:38:06;;;;;;;0.10;0.10;;;;;;;11.91;68.91;101933.13;5085599;28;20032;-84
2023/02/18 09:40:36;;;;;;;0.10;0.10;;;;;;;12.01;69.35;101925.97;5099531;28;20031;-85
2023/02/18 09:43:02;;;;;;;0.10;0.10;;;;;;;11.91;69.39;101938.44;5107783;28;20039;-85
2023/02/18 09:45:29;;;;;;;0.10;0.10;;;;;;;11.97;68.88;101925.16;5102932;28;20021;-84
2023/02/18 09:47:56;;;;;;;0.10;0.10;;;;;;;11.95;68.86;101945.50;5098199;28;20024;-85
2023/02/18 09:50:27;;;;;;;0.20;0.20;;;;;;;12.05;68.81;101942.78;5108861;28;20023;-83
2023/02/18 09:52:54;;;;;;;0.10;0.10;;;;;;;12.07;68.86;101952.50;5106386;28;20032;-84
2023/02/18 09:55:28;;;;;;;0.20;0.20;;;;;;;12.17;69.01;101942.66;5098380;28;20031;-84
2023/02/18 09:58:02;;;;;;;0.25;0.25;;;;;;;12.13;68.16;101956.88;5099302;28;20531;-87
2023/02/18 10:00:47;;;;;;;0.10;0.10;;;;;;;12.14;68.40;101959.53;5094272;28;20055;-87
2023/02/18 10:03:20;;;;;;;0.10;0.10;;;;;;;12.19;68.29;101954.19;5093866;28;20020;-86
2023/02/18 10:06:09;;;;;;;0.10;0.10;;;;;;;12.22;68.15;101948.81;5094395;28;20033;-86
2023/02/18 10:08:41;;;;;;;0.10;0.10;;;;;;;12.26;68.05;101974.50;5091802;28;20518;-86
2023/02/18 10:11:15;;;;;;;0.70;0.70;;;;;;;12.36;68.29;101942.50;5095014;28;20036;-86
2023/02/18 10:13:42;;;;;;;0.10;0.10;;;;;;;12.39;68.38;101947.81;5097028;28;20059;-87
2023/02/18 10:16:14;;;;;;;0.10;0.10;;;;;;;12.19;68.13;101972.78;5098958;28;20548;-86
2023/02/18 10:18:44;;;;;;;0.13;0.13;;;;;;;12.27;68.22;101955.00;5098233;28;20481;-87
2023/02/18 10:21:14;;;;;;;0.10;0.10;;;;;;;12.27;68.14;101960.31;5094966;28;20024;-87
2023/02/18 10:23:50;;;;;;;0.20;0.20;;;;;;;12.30;68.09;101973.56;5095562;28;20031;-85
2023/02/18 10:26:18;;;;;;;0.20;0.20;;;;;;;12.30;68.30;101964.72;5097512;28;20399;-87
2023/02/18 10:28:45;;;;;;;0.95;0.95;;;;;;;12.45;68.50;101969.00;5096426;28;20069;-86
2023/02/18 10:31:19;;;;;;;0.10;0.10;;;;;;;12.55;68.72;101959.16;5094824;28;20036;-84
2023/02/18 10:37:00;;;;;;;0.15;0.15;;;;;;;12.74;67.92;101973.13;5122812;27;1306731;-85
2023/02/18 10:39:48;;;;;;;0.30;0.30;;;;;;;12.71;67.93;101975.81;5151461;27;20047;-85
2023/02/18 10:45:22;;;;;;;0.10;0.10;;;;;;;12.55;68.56;101991.06;5061463;28;20131;-86
2023/02/18 10:48:17;;;;;;;0.13;0.13;;;;;;;12.59;67.85;101998.09;5067340;28;20071;-87
2023/02/18 10:50:45;;;;;;;1.45;1.45;;;;;;;12.59;68.21;101988.34;5066023;28;20037;-87
2023/02/18 10:53:21;;;;;;;0.50;0.50;;;;;;;12.67;68.02;101974.09;5054470;28;20024;-88
2023/02/18 10:55:48;;;;;;;0.38;0.38;;;;;;;12.67;67.62;101971.44;5067184;28;20017;-89
2023/02/18 10:58:40;;;;;;;0.35;0.35;;;;;;;12.73;68.06;101984.66;5063125;28;20032;-86
2023/02/18 11:01:15;;;;;;;0.30;0.30;;;;;;;12.68;67.68;101989.16;5069140;28;20041;-87
2023/02/18 11:07:17;;;;;;;0.22;0.22;;;;;;;12.78;67.44;101972.19;5106725;27;20729;-85
2023/02/18 11:10:09;;;;;;;2.05;0.90;;;;;;;12.88;67.62;102019.06;5108000;28;20040;-85
2023/02/18 11:17:55;;;;;;;0.10;0.10;;;;;;;12.96;67.50;101997.72;5069422;28;20364;-86
2023/02/18 11:25:58;;;;;;;0.30;0.30;;;;;;;12.88;67.29;101981.81;5097483;27;1168523;-85
2023/02/18 11:31:26;;;;;;;0.50;0.50;;;;;;;12.91;67.09;101983.56;5124023;27;20385;-84
2023/02/18 11:33:57;;;;;;;0.10;0.10;;;;;;;12.90;67.01;102001.31;5091097;28;20415;-86
2023/02/18 11:36:34;;;;;;;0.55;0.55;;;;;;;12.94;67.19;101979.09;5091149;28;20036;-85
2023/02/18 11:39:03;;;;;;;0.10;0.10;;;;;;;13.10;67.17;101973.59;5089991;28;20016;-86
2023/02/18 11:41:41;;;;;;;0.10;0.10;;;;;;;13.06;67.02;102014.44;5091389;28;20469;-86
2023/02/18 11:44:24;;;;;;;0.10;0.10;;;;;;;12.88;67.28;101996.91;5090860;28;20028;-86
2023/02/18 11:50:22;;;;;;;0.10;0.10;;;;;;;13.11;66.99;101984.22;5072408;28;20417;-85
2023/02/18 11:52:50;;;;;;;0.10;0.10;;;;;;;13.06;67.34;101985.16;5064684;28;20051;-86
2023/02/18 11:58:02;;;;;;;0.10;0.10;;;;;;;12.99;67.35;101975.53;5113344;27;20389;-84
2023/02/18 12:00:39;;;;;;;0.30;0.30;;;;;;;13.13;66.45;101976.22;5091654;28;20516;-86
2023/02/18 12:06:09;;;;;;;0.15;0.15;;;;;;;13.23;67.20;101969.00;5053438;28;20413;-86
2023/02/18 12:08:48;;;;;;;1.85;1.75;;;;;;;13.20;66.41;101967.25;5058580;28;20096;-85
2023/02/18 12:11:36;;;;;;;3.97;2.17;;;;;;;13.34;66.97;101984.84;5057691;28;20040;-86
2023/02/18 12:14:08;;;;;;;0.10;0.10;;;;;;;13.34;66.31;101967.06;5051278;28;20040;-85
2023/02/18 12:17:05;;;;;;;0.50;0.50;;;;;;;13.49;66.29;101955.34;5052978;28;20083;-84
2023/02/18 12:20:11;;;;;;;2.38;0.82;;;;;;;13.51;65.33;101981.97;5061879;28;20276;-85
2023/02/18 12:22:44;;;;;;;0.10;0.10;;;;;;;13.61;65.63;101959.63;5066495;28;20125;-85
2023/02/18 12:27:58;;;;;;;0.20;0.20;;;;;;;13.65;65.71;101973.78;5152106;27;1163506;-85
2023/02/18 12:34:13;;;;;;;0.10;0.10;;;;;;;13.99;64.46;101966.13;5081814;27;20417;-91
2023/02/18 12:37:00;;;;;;;0.10;0.10;;;;;;;13.80;65.34;101970.00;5067705;28;20079;-90
2023/02/18 12:39:59;;;;;;;0.10;0.10;;;;;;;13.72;65.43;101972.78;5071304;28;20466;-91
2023/02/18 12:49:00;;;;;;;0.95;0.93;;;;;;;13.82;65.14;101965.53;5101485;27;1180961;-84
2023/02/18 12:57:13;;;;;;;0.10;0.10;;;;;;;14.22;64.12;101968.41;5106001;27;20132;-85
2023/02/18 13:00:06;;;;;;;1.00;1.00;;;;;;;14.25;64.13;101956.81;5104216;28;20035;-85
2023/02/18 13:03:03;;;;;;;0.13;0.13;;;;;;;14.18;63.70;101958.72;5103958;28;20476;-85
2023/02/18 13:13:38;;;;;;;0.10;0.10;;;;;;;13.97;64.57;101975.06;5085961;28;20421;-83